Time;durP1;ratioP1;P1;durP2;ratioP2;P2;SDS_P1;SDS_P2;PMS_P1;PMS_P2;Temp;Humidity;BMP_temperature;BMP_pressure;BME280_temperature;BME280_humidity;BME280_pressure;Samples;Min_cycle;Max_cycle;Signal;HPM_P1;HPM_P2
2022/07/02 00:02:10;;;;;;;4.68;2.10;;;13.40;99.90;;;;;;4975722;28;20485;-73
2022/07/02 00:04:36;;;;;;;3.88;1.58;;;13.30;99.90;;;;;;4973082;28;20129;-73
2022/07/02 00:07:02;;;;;;;6.25;1.80;;;13.30;99.90;;;;;;4955856;28;20055;-73
2022/07/02 00:09:28;;;;;;;6.75;1.90;;;13.30;99.90;;;;;;4959383;28;20406;-73
2022/07/02 00:11:59;;;;;;;3.95;1.50;;;13.20;99.90;;;;;;4988906;28;20047;-73
2022/07/02 00:14:25;;;;;;;4.60;1.70;;;13.20;99.90;;;;;;4985011;28;20034;-73
2022/07/02 00:16:54;;;;;;;4.18;1.88;;;13.20;99.90;;;;;;4975645;28;20054;-73
2022/07/02 00:19:20;;;;;;;6.53;1.77;;;13.20;99.90;;;;;;4975051;28;20568;-73
2022/07/02 00:21:46;;;;;;;4.13;1.88;;;13.10;99.90;;;;;;4971774;28;20053;-73
2022/07/02 00:24:12;;;;;;;3.08;1.80;;;13.10;99.90;;;;;;4958771;28;20049;-73
2022/07/02 00:26:39;;;;;;;3.55;1.83;;;13.10;99.90;;;;;;4959000;28;20046;-73
2022/07/02 00:29:16;;;;;;;4.05;1.77;;;13.10;99.90;;;;;;4959843;28;20053;-73
2022/07/02 00:31:43;;;;;;;5.25;1.98;;;13.00;99.90;;;;;;4975417;28;20394;-73
2022/07/02 00:34:09;;;;;;;4.90;1.83;;;13.00;99.90;;;;;;4974589;28;20042;-73
2022/07/02 00:36:37;;;;;;;5.80;2.22;;;12.90;99.90;;;;;;4980086;28;20411;-73
2022/07/02 00:39:03;;;;;;;5.63;2.00;;;12.90;99.90;;;;;;4969133;28;20085;-73
2022/07/02 00:41:30;;;;;;;3.85;1.92;;;12.90;99.90;;;;;;4974073;28;20090;-73
2022/07/02 00:43:57;;;;;;;4.30;2.13;;;12.90;99.90;;;;;;4959053;28;20864;-73
2022/07/02 00:46:25;;;;;;;6.13;2.10;;;12.80;99.90;;;;;;4977462;28;20050;-73
2022/07/02 00:48:52;;;;;;;4.35;2.00;;;12.80;99.90;;;;;;4972697;28;20053;-73
2022/07/02 00:51:17;;;;;;;4.95;2.17;;;12.80;99.90;;;;;;4974239;28;20056;-73
2022/07/02 00:53:43;;;;;;;2.55;1.95;;;12.80;99.90;;;;;;4974459;28;20045;-73
2022/07/02 00:56:09;;;;;;;5.43;2.10;;;12.80;99.90;;;;;;4975720;28;20049;-73
2022/07/02 00:58:34;;;;;;;4.57;2.22;;;12.70;99.90;;;;;;4971647;28;20046;-73
2022/07/02 01:01:00;;;;;;;4.72;1.88;;;12.70;99.90;;;;;;4978601;28;20454;-73
2022/07/02 01:03:26;;;;;;;3.85;2.22;;;12.70;99.90;;;;;;4974095;28;20091;-74
2022/07/02 01:05:53;;;;;;;8.35;2.60;;;12.70;99.90;;;;;;4974599;28;20559;-74
2022/07/02 01:11:07;;;;;;;3.72;2.65;;;12.60;99.90;;;;;;4971850;28;20482;-73
2022/07/02 01:13:33;;;;;;;6.15;2.90;;;12.60;99.90;;;;;;4956750;28;20133;-74
2022/07/02 01:16:00;;;;;;;3.85;2.20;;;12.60;99.90;;;;;;4975868;28;20042;-74
2022/07/02 01:18:25;;;;;;;8.07;2.33;;;12.60;99.90;;;;;;4971831;28;20046;-73
2022/07/02 01:20:51;;;;;;;5.78;2.97;;;12.60;99.90;;;;;;4973295;28;20042;-74
2022/07/02 01:23:17;;;;;;;6.28;2.80;;;12.50;99.90;;;;;;4977026;28;20054;-74
2022/07/02 01:25:50;;;;;;;6.97;2.72;;;12.50;99.90;;;;;;4976658;28;20490;-74
2022/07/02 01:28:16;;;;;;;6.18;2.70;;;12.50;99.90;;;;;;4971994;28;20061;-74
2022/07/02 01:30:42;;;;;;;4.38;2.40;;;12.50;99.90;;;;;;4974505;28;20354;-74
2022/07/02 01:33:07;;;;;;;4.93;2.95;;;12.50;99.90;;;;;;4977476;28;20068;-74
2022/07/02 01:35:33;;;;;;;8.20;2.90;;;12.50;99.90;;;;;;4973768;28;20038;-74
2022/07/02 01:37:59;;;;;;;4.35;2.75;;;12.50;99.90;;;;;;4973083;28;20042;-74
2022/07/02 01:40:25;;;;;;;4.95;2.67;;;12.50;99.90;;;;;;4973845;28;20406;-73
2022/07/02 01:42:50;;;;;;;4.85;3.65;;;12.40;99.90;;;;;;4955485;28;20041;-73
2022/07/02 01:45:16;;;;;;;4.93;3.03;;;12.40;99.90;;;;;;4974031;28;20478;-74
2022/07/02 01:47:42;;;;;;;5.88;3.70;;;12.40;99.90;;;;;;4975860;28;20382;-74
2022/07/02 01:50:08;;;;;;;5.47;3.25;;;12.40;99.90;;;;;;4957734;28;20120;-74
2022/07/02 01:52:34;;;;;;;8.77;3.30;;;12.40;99.90;;;;;;4974220;28;20121;-74
2022/07/02 01:54:59;;;;;;;8.73;3.03;;;12.40;99.90;;;;;;4973114;28;20577;-74
2022/07/02 01:57:25;;;;;;;9.60;3.30;;;12.40;99.90;;;;;;4973438;28;20038;-73
2022/07/02 01:59:51;;;;;;;6.05;3.55;;;12.30;99.90;;;;;;4974862;28;20046;-73
2022/07/02 02:02:17;;;;;;;5.30;3.50;;;12.30;99.90;;;;;;4972201;28;20199;-73
2022/07/02 02:04:43;;;;;;;9.07;3.92;;;12.30;99.90;;;;;;4975508;28;20465;-73
2022/07/02 02:07:08;;;;;;;5.55;3.40;;;12.30;99.90;;;;;;4973057;28;20590;-73
2022/07/02 02:09:34;;;;;;;4.72;2.88;;;12.30;99.90;;;;;;4975043;28;20051;-73
2022/07/02 02:12:00;;;;;;;7.13;3.63;;;12.30;99.90;;;;;;4975683;28;20073;-73
2022/07/02 02:14:26;;;;;;;6.50;4.15;;;12.20;99.90;;;;;;4992692;28;20136;-73
2022/07/02 02:16:52;;;;;;;5.32;3.70;;;12.30;99.90;;;;;;4973672;28;20402;-73
2022/07/02 02:19:17;;;;;;;6.63;3.95;;;12.20;99.90;;;;;;4976268;28;20094;-73
2022/07/02 02:21:43;;;;;;;6.88;3.75;;;12.20;99.90;;;;;;4973136;28;20041;-73
2022/07/02 02:24:09;;;;;;;5.65;3.67;;;12.20;99.90;;;;;;4972580;28;21693;-73
2022/07/02 02:26:34;;;;;;;6.93;4.03;;;12.20;99.90;;;;;;4955779;28;20529;-73
2022/07/02 02:29:00;;;;;;;6.63;3.75;;;12.20;99.90;;;;;;4972056;28;20223;-73
2022/07/02 02:31:27;;;;;;;10.30;4.40;;;12.20;99.90;;;;;;4973396;28;20137;-73
2022/07/02 02:33:53;;;;;;;6.38;4.03;;;12.20;99.90;;;;;;4976463;28;20050;-73
2022/07/02 02:36:18;;;;;;;4.72;3.92;;;12.20;99.90;;;;;;4977367;28;20043;-74
2022/07/02 02:38:46;;;;;;;5.20;3.35;;;12.20;99.90;;;;;;4976732;28;20108;-73
2022/07/02 02:41:12;;;;;;;5.05;4.25;;;12.20;99.90;;;;;;4970945;28;20050;-74
2022/07/02 02:43:38;;;;;;;8.38;4.60;;;12.10;99.90;;;;;;4958608;28;20401;-73
2022/07/02 02:46:05;;;;;;;7.95;3.92;;;12.10;99.90;;;;;;4975762;28;20042;-72
2022/07/02 02:48:31;;;;;;;5.28;3.60;;;12.10;99.90;;;;;;4983334;28;20494;-73
2022/07/02 02:50:57;;;;;;;6.80;4.18;;;12.10;99.90;;;;;;4984787;28;20126;-73
2022/07/02 02:53:23;;;;;;;7.70;4.45;;;12.10;99.90;;;;;;4975779;28;20129;-73
2022/07/02 02:55:49;;;;;;;6.15;3.85;;;12.10;99.90;;;;;;4969156;28;20104;-73
2022/07/02 02:58:15;;;;;;;6.28;4.30;;;12.10;99.90;;;;;;4963013;28;20055;-73
2022/07/02 03:00:41;;;;;;;6.55;5.00;;;12.10;99.90;;;;;;4975947;28;20034;-73
2022/07/02 03:03:06;;;;;;;7.40;4.80;;;12.10;99.90;;;;;;4959613;28;20050;-73
2022/07/02 03:05:32;;;;;;;7.80;4.75;;;12.10;99.90;;;;;;4976497;28;20050;-73
2022/07/02 03:07:58;;;;;;;8.13;4.32;;;12.10;99.90;;;;;;4975839;28;20110;-73
2022/07/02 03:10:24;;;;;;;6.28;5.05;;;12.10;99.90;;;;;;4975531;28;20049;-73
2022/07/02 03:12:49;;;;;;;7.88;5.28;;;12.10;99.90;;;;;;4974841;28;20158;-73
2022/07/02 03:15:15;;;;;;;9.13;5.38;;;12.10;99.90;;;;;;4976386;28;20435;-73
2022/07/02 03:17:41;;;;;;;8.32;5.63;;;12.10;99.90;;;;;;4960012;28;20046;-73
2022/07/02 03:20:07;;;;;;;8.15;5.32;;;12.10;99.90;;;;;;4978707;28;20446;-73
2022/07/02 03:22:33;;;;;;;6.25;5.50;;;12.10;99.90;;;;;;4976768;28;20085;-73
2022/07/02 03:24:58;;;;;;;10.05;5.15;;;12.10;99.90;;;;;;4961762;28;20093;-73
2022/07/02 03:27:24;;;;;;;10.05;5.78;;;12.00;99.90;;;;;;4974044;28;20042;-73
2022/07/02 03:29:51;;;;;;;10.95;6.38;;;12.00;99.90;;;;;;4957855;28;20044;-74
2022/07/02 03:32:17;;;;;;;8.18;5.78;;;12.00;99.90;;;;;;4975419;28;20054;-73
2022/07/02 03:34:43;;;;;;;8.77;6.40;;;12.00;99.90;;;;;;4975674;28;20034;-73
2022/07/02 03:37:09;;;;;;;8.93;6.32;;;12.00;99.90;;;;;;4974688;28;20052;-73
2022/07/02 03:39:34;;;;;;;8.07;5.50;;;12.00;99.90;;;;;;4963684;28;20054;-74
2022/07/02 03:42:00;;;;;;;10.80;6.40;;;12.00;99.90;;;;;;4974202;28;20061;-73
2022/07/02 03:44:26;;;;;;;8.07;6.45;;;12.00;99.90;;;;;;4975941;28;20042;-73
2022/07/02 03:46:51;;;;;;;7.40;6.15;;;12.00;99.90;;;;;;4975353;28;20046;-73
2022/07/02 03:49:17;;;;;;;7.97;5.97;;;12.00;99.90;;;;;;4958875;28;20050;-73
2022/07/02 03:51:43;;;;;;;7.57;6.82;;;12.10;99.90;;;;;;4975147;28;20041;-73
2022/07/02 03:54:08;;;;;;;9.85;6.68;;;12.00;99.90;;;;;;4958240;28;20062;-73
2022/07/02 03:56:34;;;;;;;7.03;6.10;;;12.10;99.90;;;;;;4975178;28;20240;-73
2022/07/02 03:59:00;;;;;;;9.90;6.78;;;12.20;99.90;;;;;;4974308;28;20049;-73
2022/07/02 04:01:26;;;;;;;7.90;6.65;;;12.20;99.90;;;;;;4958777;28;20050;-73
2022/07/02 04:03:51;;;;;;;9.10;6.35;;;12.20;99.90;;;;;;4973857;28;20073;-73
2022/07/02 04:06:17;;;;;;;7.93;7.10;;;12.30;99.90;;;;;;4973268;28;20378;-73
2022/07/02 04:08:43;;;;;;;8.25;7.10;;;12.30;99.90;;;;;;4974930;28;20042;-73
2022/07/02 04:11:08;;;;;;;8.15;6.90;;;12.30;99.90;;;;;;4974388;28;20129;-73
2022/07/02 04:13:34;;;;;;;10.05;5.80;;;12.40;99.90;;;;;;4974077;28;20435;-73
2022/07/02 04:16:00;;;;;;;7.38;5.88;;;12.40;99.90;;;;;;4974661;28;20493;-73
2022/07/02 04:18:26;;;;;;;10.93;6.45;;;12.50;99.90;;;;;;4974469;28;20046;-73
2022/07/02 04:20:52;;;;;;;9.07;6.78;;;12.50;99.90;;;;;;4973841;28;20117;-73
2022/07/02 04:23:17;;;;;;;9.15;6.63;;;12.60;99.90;;;;;;4974975;28;20038;-73
2022/07/02 04:25:43;;;;;;;9.32;7.00;;;12.60;99.90;;;;;;4974701;28;20034;-73
2022/07/02 04:28:10;;;;;;;9.65;7.47;;;12.70;99.90;;;;;;4973771;28;20410;-73
2022/07/02 04:30:36;;;;;;;10.70;7.35;;;12.80;99.90;;;;;;4972953;28;20082;-73
2022/07/02 04:33:02;;;;;;;7.03;6.32;;;12.90;99.90;;;;;;4973860;28;20078;-73
2022/07/02 04:35:28;;;;;;;8.60;6.88;;;13.00;99.90;;;;;;4974392;28;20042;-73
2022/07/02 04:37:54;;;;;;;13.90;6.65;;;13.10;99.90;;;;;;4974335;28;20108;-73
2022/07/02 04:40:20;;;;;;;9.02;6.88;;;13.20;99.90;;;;;;4990406;28;20038;-73
2022/07/02 04:42:45;;;;;;;8.60;6.28;;;13.20;99.90;;;;;;4989871;28;20071;-73
2022/07/02 04:45:11;;;;;;;8.60;6.43;;;13.40;99.90;;;;;;4976559;28;20046;-73
2022/07/02 04:47:37;;;;;;;7.70;6.00;;;13.40;99.90;;;;;;4962696;28;20030;-73
2022/07/02 04:50:03;;;;;;;8.80;6.43;;;13.50;99.90;;;;;;4973633;28;20047;-73
2022/07/02 04:52:28;;;;;;;6.50;5.70;;;13.60;99.90;;;;;;4971323;28;20038;-73
2022/07/02 04:54:54;;;;;;;11.07;6.40;;;13.70;99.90;;;;;;4973185;28;20137;-73
2022/07/02 04:57:20;;;;;;;10.00;5.90;;;13.80;99.90;;;;;;4956198;28;20051;-73
2022/07/02 04:59:45;;;;;;;7.47;5.40;;;14.00;99.90;;;;;;4958687;28;20046;-73
2022/07/02 05:02:12;;;;;;;7.47;5.72;;;14.10;99.90;;;;;;4969048;28;20116;-73
2022/07/02 05:04:39;;;;;;;6.30;4.80;;;14.30;99.90;;;;;;4976040;28;20042;-73
2022/07/02 05:07:05;;;;;;;7.40;5.32;;;14.50;99.90;;;;;;4956230;28;20042;-73
2022/07/02 05:09:31;;;;;;;10.60;5.65;;;14.80;99.90;;;;;;4973836;28;20046;-73
2022/07/02 05:11:56;;;;;;;8.32;5.78;;;15.50;99.90;;;;;;4970854;28;20054;-73
2022/07/02 05:14:22;;;;;;;9.05;5.00;;;15.80;99.90;;;;;;4971761;28;20051;-73
2022/07/02 05:16:48;;;;;;;6.50;4.55;;;15.80;99.90;;;;;;4971462;28;20046;-73
2022/07/02 05:19:14;;;;;;;10.00;4.68;;;16.10;99.90;;;;;;4972926;28;20034;-73
2022/07/02 05:21:41;;;;;;;7.80;4.68;;;16.30;99.90;;;;;;4974623;28;20037;-74
2022/07/02 05:24:07;;;;;;;7.95;4.10;;;16.20;99.90;;;;;;4972693;28;20482;-73
2022/07/02 05:26:33;;;;;;;9.25;3.90;;;16.10;99.90;;;;;;4972802;28;20057;-74
2022/07/02 05:28:59;;;;;;;6.13;3.88;;;16.00;99.90;;;;;;4971913;28;20567;-74
2022/07/02 05:31:25;;;;;;;10.43;4.40;;;15.90;99.90;;;;;;4969676;28;20046;-74
2022/07/02 05:33:50;;;;;;;7.75;4.05;;;15.90;99.90;;;;;;4956554;28;20097;-74
2022/07/02 05:36:16;;;;;;;6.55;4.57;;;15.90;99.90;;;;;;4972626;28;20050;-74
2022/07/02 05:38:42;;;;;;;6.97;4.47;;;15.90;99.90;;;;;;4972406;28;20046;-74
2022/07/02 05:41:08;;;;;;;8.18;4.25;;;15.90;99.90;;;;;;4973993;28;20046;-73
2022/07/02 05:43:34;;;;;;;4.97;3.72;;;16.00;99.90;;;;;;4953898;28;20049;-73
2022/07/02 05:45:59;;;;;;;6.45;3.58;;;16.10;99.90;;;;;;4973183;28;20457;-73
2022/07/02 05:48:25;;;;;;;8.02;3.50;;;16.20;99.90;;;;;;4962648;28;20043;-73
2022/07/02 05:50:51;;;;;;;7.75;4.10;;;16.20;99.90;;;;;;4973428;28;20052;-73
2022/07/02 05:53:17;;;;;;;7.53;3.63;;;16.30;99.90;;;;;;4972508;28;20049;-73
2022/07/02 05:55:42;;;;;;;6.38;3.80;;;16.40;99.90;;;;;;4973201;28;20134;-73
2022/07/02 05:58:08;;;;;;;8.38;3.17;;;16.50;99.90;;;;;;4972306;28;20040;-73
2022/07/02 06:00:34;;;;;;;4.55;2.88;;;16.60;99.90;;;;;;4957058;28;20193;-73
2022/07/02 06:03:00;;;;;;;5.22;3.15;;;16.60;99.90;;;;;;4981537;28;20060;-73
2022/07/02 06:08:09;;;;;;;4.22;2.65;;;16.70;99.90;;;;;;4975028;28;20933;-73
2022/07/02 06:10:35;;;;;;;5.57;2.58;;;16.80;99.90;;;;;;4976943;28;20117;-73
2022/07/02 06:13:01;;;;;;;7.00;2.63;;;16.90;99.90;;;;;;4972228;28;20506;-74
2022/07/02 06:15:27;;;;;;;4.95;2.03;;;17.00;99.90;;;;;;4976812;28;20051;-74
2022/07/02 06:17:53;;;;;;;4.82;2.40;;;17.10;99.90;;;;;;4976078;28;20054;-74
2022/07/02 06:20:19;;;;;;;7.57;2.13;;;17.20;99.90;;;;;;4976031;28;20042;-74
2022/07/02 06:22:45;;;;;;;7.32;2.47;;;17.20;99.90;;;;;;4965955;28;20030;-74
2022/07/02 06:25:10;;;;;;;8.73;2.83;;;17.30;99.90;;;;;;4977270;28;20050;-74
2022/07/02 06:27:38;;;;;;;4.13;2.10;;;17.40;99.90;;;;;;4975156;28;20050;-74
2022/07/02 06:30:04;;;;;;;6.60;2.15;;;17.50;99.90;;;;;;4976453;28;20061;-74
2022/07/02 06:32:31;;;;;;;5.82;1.88;;;17.60;99.90;;;;;;4962854;28;20053;-74
2022/07/02 06:34:57;;;;;;;5.43;1.77;;;17.60;99.90;;;;;;4959964;28;20076;-74
2022/07/02 06:37:23;;;;;;;2.75;1.48;;;17.70;99.90;;;;;;4978429;28;20141;-73
2022/07/02 06:39:50;;;;;;;3.17;1.40;;;17.80;99.90;;;;;;4978242;28;20375;-73
2022/07/02 06:42:19;;;;;;;6.32;1.83;;;18.00;99.90;;;;;;4976570;28;20063;-73
2022/07/02 06:44:53;;;;;;;4.50;1.55;;;18.10;99.90;;;;;;4961867;28;20046;-73
2022/07/02 06:47:19;;;;;;;3.67;1.60;;;18.10;99.90;;;;;;4978447;28;20132;-73
2022/07/02 06:49:46;;;;;;;2.67;1.45;;;18.20;99.90;;;;;;4977776;28;20058;-73
2022/07/02 06:52:12;;;;;;;4.20;1.50;;;18.40;99.90;;;;;;4977764;28;20482;-73
2022/07/02 06:54:38;;;;;;;4.75;1.38;;;18.40;99.90;;;;;;4977422;28;20084;-73
2022/07/02 06:57:05;;;;;;;4.82;1.30;;;18.50;99.90;;;;;;4976151;28;20137;-73
2022/07/02 06:59:31;;;;;;;3.20;1.25;;;18.60;99.90;;;;;;4976344;28;20050;-70
2022/07/02 07:01:57;;;;;;;4.28;1.27;;;18.70;99.90;;;;;;4961815;28;20129;-72
2022/07/02 07:04:23;;;;;;;3.40;1.10;;;18.80;99.90;;;;;;4976117;28;20053;-73
2022/07/02 07:06:55;;;;;;;4.45;1.15;;;18.80;99.90;;;;;;4981787;28;20405;-73
2022/07/02 07:09:24;;;;;;;4.97;1.08;;;18.80;99.90;;;;;;4974224;28;20133;-73
2022/07/02 07:11:50;;;;;;;3.58;0.93;;;18.90;99.90;;;;;;4975830;28;20058;-74
2022/07/02 07:14:17;;;;;;;4.32;1.15;;;19.00;99.90;;;;;;4993074;28;20470;-73
2022/07/02 07:16:43;;;;;;;5.38;1.35;;;19.00;99.90;;;;;;4957419;28;20042;-73
2022/07/02 07:19:09;;;;;;;2.78;0.75;;;19.20;99.90;;;;;;4975187;28;20942;-73
2022/07/02 07:21:38;;;;;;;5.15;1.20;;;19.20;99.90;;;;;;4971967;28;20125;-73
2022/07/02 07:24:05;;;;;;;2.13;0.80;;;19.40;99.90;;;;;;4989762;28;20038;-73
2022/07/02 07:26:31;;;;;;;2.15;0.73;;;19.60;99.90;;;;;;4976470;28;20042;-73
2022/07/02 07:28:57;;;;;;;4.15;0.60;;;19.70;99.90;;;;;;4975914;28;20041;-73
2022/07/02 07:31:22;;;;;;;2.92;0.80;;;19.90;99.90;;;;;;4976837;28;20355;-73
2022/07/02 07:33:53;;;;;;;4.97;0.90;;;19.90;99.90;;;;;;4972613;28;20529;-73
2022/07/02 07:36:20;;;;;;;3.38;0.98;;;20.10;99.90;;;;;;4979060;28;20046;-73
2022/07/02 07:38:47;;;;;;;2.60;0.68;;;20.10;99.90;;;;;;4976207;28;20047;-73
2022/07/02 07:41:13;;;;;;;1.77;0.40;;;20.20;99.90;;;;;;4965790;28;20043;-73
2022/07/02 07:43:39;;;;;;;1.58;0.40;;;20.30;99.90;;;;;;4969736;28;20506;-73
2022/07/02 07:46:04;;;;;;;1.80;0.60;;;20.40;99.20;;;;;;4972454;28;20054;-73
2022/07/02 07:48:30;;;;;;;1.80;0.50;;;20.50;99.60;;;;;;4965124;28;20537;-73
2022/07/02 07:50:56;;;;;;;1.65;0.60;;;20.70;98.80;;;;;;4967821;28;20122;-74
2022/07/02 07:53:22;;;;;;;3.78;0.75;;;20.90;98.00;;;;;;4968697;28;20038;-74
2022/07/02 07:55:48;;;;;;;2.72;0.68;;;21.00;96.90;;;;;;4972210;28;20407;-74
2022/07/02 07:58:15;;;;;;;3.35;1.77;;;21.00;96.80;;;;;;4970070;28;20042;-74
2022/07/02 08:00:41;;;;;;;2.25;0.70;;;21.00;97.10;;;;;;4986030;28;20178;-74
2022/07/02 08:03:06;;;;;;;3.58;0.60;;;21.10;97.00;;;;;;4970641;28;20126;-74
2022/07/02 08:05:32;;;;;;;2.03;0.90;;;21.10;96.30;;;;;;4971211;28;20454;-74
2022/07/02 08:07:58;;;;;;;3.00;0.88;;;21.20;96.40;;;;;;4969890;28;20053;-74
2022/07/02 08:10:23;;;;;;;1.90;0.73;;;21.20;96.60;;;;;;4970360;28;20055;-74
2022/07/02 08:12:52;;;;;;;4.00;0.90;;;21.30;95.70;;;;;;4969569;28;20129;-74
2022/07/02 08:15:18;;;;;;;4.03;0.93;;;21.40;95.10;;;;;;4961271;28;20074;-74
2022/07/02 08:17:43;;;;;;;3.17;0.82;;;21.50;95.00;;;;;;4970491;28;20043;-74
2022/07/02 08:20:10;;;;;;;1.98;0.98;;;21.70;94.30;;;;;;4970682;28;20038;-74
2022/07/02 08:22:36;;;;;;;2.20;0.90;;;22.00;95.10;;;;;;4973657;28;20046;-73
2022/07/02 08:25:04;;;;;;;3.60;0.60;;;22.40;93.30;;;;;;4971690;28;20380;-73
2022/07/02 08:27:29;;;;;;;5.18;4.68;;;22.80;91.70;;;;;;4970244;28;20053;-73
2022/07/02 08:29:56;;;;;;;10.00;7.18;;;23.30;90.80;;;;;;4969715;28;20529;-73
2022/07/02 08:32:22;;;;;;;5.85;4.30;;;23.80;89.70;;;;;;4983751;28;20055;-73
2022/07/02 08:34:48;;;;;;;2.88;0.70;;;24.20;84.90;;;;;;4971844;28;20065;-73
2022/07/02 08:37:14;;;;;;;1.98;0.60;;;24.50;84.60;;;;;;4970971;28;20086;-73
2022/07/02 08:39:40;;;;;;;2.53;0.40;;;24.70;81.30;;;;;;4971175;28;20115;-73
2022/07/02 08:42:08;;;;;;;2.80;0.70;;;24.90;75.90;;;;;;4968793;28;20137;-73
2022/07/02 08:44:35;;;;;;;1.60;0.77;;;25.00;73.70;;;;;;4972568;28;20055;-72
2022/07/02 08:47:03;;;;;;;4.82;0.57;;;25.00;73.40;;;;;;4972345;28;20433;-72
2022/07/02 08:49:39;;;;;;;2.58;0.40;;;25.20;71.20;;;;;;5103567;27;20408;-72
2022/07/02 08:52:07;;;;;;;2.10;0.30;;;25.20;72.40;;;;;;5083981;28;20098;-72
2022/07/02 08:54:34;;;;;;;5.05;1.42;;;25.40;70.50;;;;;;5115222;27;20048;-72
2022/07/02 08:57:03;;;;;;;1.85;0.32;;;25.50;68.60;;;;;;5082920;28;20041;-72
2022/07/02 08:59:32;;;;;;;8.27;0.63;;;25.50;66.20;;;;;;5113228;28;20032;-73
2022/07/02 09:01:59;;;;;;;3.33;0.50;;;25.50;65.80;;;;;;5119654;28;20119;-73
2022/07/02 09:04:25;;;;;;;3.78;1.20;;;25.60;66.60;;;;;;5120349;28;20040;-73
2022/07/02 09:06:57;;;;;;;4.82;0.60;;;25.80;65.50;;;;;;5114539;28;20128;-73
2022/07/02 09:09:25;;;;;;;1.35;0.32;;;25.90;65.10;;;;;;5085611;28;20055;-73
2022/07/02 09:11:51;;;;;;;2.95;0.50;;;26.10;65.90;;;;;;5069580;28;20127;-73
2022/07/02 09:14:18;;;;;;;4.60;2.95;;;26.30;63.20;;;;;;5115863;28;20125;-74
2022/07/02 09:16:44;;;;;;;1.23;0.30;;;26.50;62.30;;;;;;5119245;28;20036;-74
2022/07/02 09:19:09;;;;;;;1.92;0.20;;;26.50;61.70;;;;;;5083893;28;20499;-74
2022/07/02 09:21:50;;;;;;;1.35;0.30;;;26.50;62.90;;;;;;5118173;28;20927;-73
2022/07/02 09:24:42;;;;;;;0.75;0.20;;;26.50;58.00;;;;;;5115701;28;20040;-73
2022/07/02 09:27:10;;;;;;;0.90;0.20;;;26.50;59.60;;;;;;5075838;28;20044;-73
2022/07/02 09:29:52;;;;;;;1.58;0.30;;;26.40;60.20;;;;;;5064694;28;20049;-73
2022/07/02 09:32:19;;;;;;;2.88;0.50;;;26.50;56.70;;;;;;5062980;28;20052;-73
2022/07/02 09:34:52;;;;;;;1.25;0.30;;;26.50;58.70;;;;;;5065439;28;20037;-73
2022/07/02 09:37:25;;;;;;;1.10;0.23;;;26.60;57.30;;;;;;5095140;28;20064;-73
2022/07/02 09:39:53;;;;;;;2.03;0.30;;;26.60;57.10;;;;;;5064841;28;20036;-73
2022/07/02 09:42:35;;;;;;;1.02;0.20;;;26.60;57.60;;;;;;5062608;28;20036;-72
2022/07/02 09:45:03;;;;;;;0.77;0.20;;;26.70;57.10;;;;;;5099618;28;20056;-72
2022/07/02 09:47:33;;;;;;;1.85;0.20;;;26.60;55.90;;;;;;5064786;28;20488;-73
2022/07/02 09:50:03;;;;;;;1.30;0.10;;;26.70;54.70;;;;;;5098932;28;20095;-73
2022/07/02 09:52:28;;;;;;;1.52;0.30;;;27.00;54.50;;;;;;5064557;28;20052;-73
2022/07/02 09:54:54;;;;;;;0.98;0.20;;;27.10;53.70;;;;;;5065367;28;20041;-73
2022/07/02 09:57:20;;;;;;;1.25;0.35;;;26.80;54.40;;;;;;5063045;28;20467;-73
2022/07/02 09:59:45;;;;;;;1.05;0.30;;;26.50;52.60;;;;;;5089616;28;20065;-73
2022/07/02 10:02:25;;;;;;;1.50;0.20;;;26.20;52.70;;;;;;5051221;28;20178;-73
2022/07/02 10:04:52;;;;;;;0.45;0.10;;;26.10;53.90;;;;;;5050238;28;20140;-73
2022/07/02 10:07:23;;;;;;;0.38;0.05;;;25.90;54.20;;;;;;5051848;28;20387;-73
2022/07/02 10:09:52;;;;;;;2.05;0.10;;;26.10;53.50;;;;;;5051259;28;20045;-73
2022/07/02 10:12:19;;;;;;;1.35;0.20;;;26.20;52.80;;;;;;5051035;28;20041;-73
2022/07/02 10:14:46;;;;;;;1.63;0.20;;;26.30;52.80;;;;;;5050012;28;20048;-72
2022/07/02 10:17:14;;;;;;;1.55;0.20;;;26.50;53.10;;;;;;5047871;28;20037;-72
2022/07/02 10:19:40;;;;;;;1.42;0.20;;;26.90;54.10;;;;;;5050301;28;20052;-72
2022/07/02 10:22:07;;;;;;;25.45;22.02;;;27.20;52.90;;;;;;5051629;28;20385;-72
2022/07/02 10:24:34;;;;;;;1.70;0.20;;;27.30;52.20;;;;;;5083823;28;20403;-72
2022/07/02 10:27:01;;;;;;;3.13;0.30;;;27.50;50.60;;;;;;5050630;28;20084;-72
2022/07/02 10:29:27;;;;;;;1.48;0.20;;;27.80;50.90;;;;;;5050382;28;20124;-72
2022/07/02 10:32:22;;;;;;;0.77;0.10;;;28.20;51.80;;;;;;5050541;28;20052;-73
2022/07/02 10:34:54;;;;;;;1.13;0.25;;;28.60;50.90;;;;;;5061922;28;20412;-73
2022/07/02 10:37:21;;;;;;;1.85;0.20;;;28.90;50.40;;;;;;5049771;28;20075;-73
2022/07/02 10:39:47;;;;;;;1.98;0.20;;;29.10;49.80;;;;;;5051108;28;20060;-73
2022/07/02 10:42:13;;;;;;;2.83;0.10;;;29.20;48.20;;;;;;5049008;28;20037;-72
2022/07/02 10:44:40;;;;;;;1.90;0.20;;;29.20;45.20;;;;;;5050542;28;20037;-72
2022/07/02 10:47:24;;;;;;;1.17;0.13;;;28.90;46.30;;;;;;5065635;28;20048;-72
2022/07/02 10:49:58;;;;;;;1.92;0.20;;;28.70;47.00;;;;;;5048830;28;20067;-73
2022/07/02 10:52:42;;;;;;;;;;;28.40;46.90;;;;;;5048480;28;20432;-73
2022/07/02 10:55:08;;;;;;;0.65;0.13;;;27.90;46.40;;;;;;5051089;28;20426;-73
2022/07/02 10:57:33;;;;;;;1.50;0.20;;;27.40;47.10;;;;;;5049492;28;20044;-73
2022/07/02 10:59:59;;;;;;;1.05;0.17;;;27.00;48.10;;;;;;5050138;28;20037;-72
2022/07/02 11:02:34;;;;;;;1.10;0.20;;;26.70;47.60;;;;;;5049715;28;20057;-72
2022/07/02 11:05:10;;;;;;;1.63;0.20;;;26.80;50.30;;;;;;5051053;28;20037;-72
2022/07/02 11:07:43;;;;;;;2.53;0.45;;;27.40;50.80;;;;;;5046464;28;20128;-72
2022/07/02 11:10:09;;;;;;;1.40;0.20;;;28.10;49.60;;;;;;5048616;28;20052;-72
2022/07/02 11:13:07;;;;;;;1.85;0.28;;;28.50;49.30;;;;;;5048511;28;20460;-72
2022/07/02 11:15:36;;;;;;;2.03;0.30;;;29.10;48.70;;;;;;5083362;28;20048;-72
2022/07/02 11:18:10;;;;;;;1.33;0.20;;;29.40;47.90;;;;;;5047928;28;20504;-72
2022/07/02 11:20:36;;;;;;;2.42;0.38;;;29.70;47.60;;;;;;5048816;28;20056;-73
2022/07/02 11:23:03;;;;;;;2.28;0.30;;;29.50;46.30;;;;;;5032111;28;20120;-72
2022/07/02 11:25:30;;;;;;;1.08;0.30;;;29.00;47.20;;;;;;5050012;28;20147;-72
2022/07/02 11:28:01;;;;;;;1.75;0.22;;;28.60;48.70;;;;;;5046331;28;20029;-72
2022/07/02 11:30:29;;;;;;;2.38;0.30;;;28.40;48.60;;;;;;5050442;28;20090;-72
2022/07/02 11:32:55;;;;;;;3.17;0.30;;;28.50;51.00;;;;;;5049120;28;20123;-72
2022/07/02 11:35:21;;;;;;;1.48;0.20;;;29.00;48.70;;;;;;5032437;28;20132;-72
2022/07/02 11:37:46;;;;;;;2.88;0.30;;;29.50;46.80;;;;;;5046609;28;20444;-72
2022/07/02 11:40:23;;;;;;;2.17;0.22;;;29.90;46.50;;;;;;5083703;28;20121;-72
2022/07/02 11:42:49;;;;;;;2.33;0.30;;;30.00;46.40;;;;;;5047340;28;20388;-72
2022/07/02 11:45:14;;;;;;;0.93;0.30;;;29.60;45.00;;;;;;5050245;28;20047;-73
2022/07/02 11:47:48;;;;;;;2.88;0.25;;;29.10;45.10;;;;;;5049299;28;20089;-73
2022/07/02 11:50:14;;;;;;;2.17;0.55;;;28.90;47.00;;;;;;5083201;28;20124;-71
2022/07/02 11:52:41;;;;;;;1.90;0.20;;;28.80;46.40;;;;;;5047325;28;20111;-72
2022/07/02 11:55:14;;;;;;;1.77;0.43;;;28.60;47.80;;;;;;5065032;28;20053;-72
2022/07/02 11:57:40;;;;;;;2.55;0.30;;;28.70;47.40;;;;;;5048502;28;20488;-72
2022/07/02 12:00:06;;;;;;;1.40;0.20;;;28.40;46.20;;;;;;5049127;28;20043;-72
2022/07/02 12:02:40;;;;;;;2.58;0.20;;;28.20;47.30;;;;;;5049009;28;20235;-72
2022/07/02 12:05:16;;;;;;;3.97;0.30;;;28.00;47.80;;;;;;5049443;28;20459;-72
2022/07/02 12:07:42;;;;;;;4.93;0.40;;;27.80;47.10;;;;;;5045919;28;20530;-72
2022/07/02 12:10:09;;;;;;;1.17;0.20;;;28.00;48.50;;;;;;5048143;28;20040;-72
2022/07/02 12:12:35;;;;;;;2.13;0.30;;;28.30;48.60;;;;;;5048068;28;20073;-72
2022/07/02 12:15:03;;;;;;;1.35;0.30;;;28.30;47.90;;;;;;5046913;28;20483;-72
2022/07/02 12:17:30;;;;;;;2.67;0.30;;;28.00;48.00;;;;;;5081765;28;20048;-72
2022/07/02 12:19:56;;;;;;;2.33;0.28;;;28.20;48.80;;;;;;5047566;28;20036;-72
2022/07/02 12:22:29;;;;;;;1.20;0.43;;;28.40;47.80;;;;;;5082351;28;20120;-72
2022/07/02 12:24:55;;;;;;;2.83;0.30;;;29.00;48.60;;;;;;5048666;28;20036;-72
2022/07/02 12:27:23;;;;;;;2.35;0.45;;;29.30;47.50;;;;;;5062394;28;20415;-72
2022/07/02 12:30:04;;;;;;;2.30;0.38;;;29.20;45.90;;;;;;5047619;28;20036;-72
2022/07/02 12:32:32;;;;;;;2.00;0.40;;;28.80;45.80;;;;;;5048526;28;20517;-72
2022/07/02 12:35:01;;;;;;;1.33;0.20;;;28.30;47.10;;;;;;5047321;28;20099;-72
2022/07/02 12:37:37;;;;;;;1.15;0.10;;;27.90;47.10;;;;;;5046279;28;20033;-71
2022/07/02 12:40:14;;;;;;;2.22;0.22;;;27.70;46.20;;;;;;5047444;28;20072;-71
2022/07/02 12:42:48;;;;;;;5.18;3.90;;;27.20;47.80;;;;;;5078741;28;20059;-72
2022/07/02 12:45:32;;;;;;;2.75;0.25;;;26.90;47.80;;;;;;5030136;28;20049;-72
2022/07/02 12:47:59;;;;;;;1.98;0.20;;;26.60;48.80;;;;;;5080824;28;20056;-72
2022/07/02 12:50:27;;;;;;;3.10;2.03;;;26.40;50.70;;;;;;5048199;28;20049;-72
2022/07/02 12:52:54;;;;;;;2.90;0.60;;;26.50;50.20;;;;;;5048127;28;20053;-72